Time;durP1;ratioP1;P1;durP2;ratioP2;P2;SDS_P1;SDS_P2;PMS_P1;PMS_P2;Temp;Humidity;BMP_temperature;BMP_pressure;BME280_temperature;BME280_humidity;BME280_pressure;Samples;Min_cycle;Max_cycle;Signal;HPM_P1;HPM_P2
2023/03/04 06:11:48;;;;;;;19.00;6.33;;;4.10;99.90;;;;;;6348409;22;20240;-93
2023/03/04 06:14:15;;;;;;;19.10;7.20;;;4.20;99.90;;;;;;6371477;22;20158;-92
2023/03/04 06:16:42;;;;;;;17.53;6.47;;;4.20;99.90;;;;;;6372044;22;20165;-92
2023/03/04 06:19:09;;;;;;;17.80;5.17;;;4.20;99.90;;;;;;6371572;22;20165;-92
2023/03/04 06:21:35;;;;;;;15.10;5.33;;;4.20;99.90;;;;;;6371573;22;20248;-91
2023/03/04 06:24:02;;;;;;;17.07;4.73;;;4.20;99.90;;;;;;6370821;22;20256;-90
2023/03/04 06:26:29;;;;;;;16.57;5.60;;;4.30;99.90;;;;;;6370783;22;20157;-91
2023/03/04 06:28:57;;;;;;;13.83;5.77;;;4.30;99.90;;;;;;6371496;22;20171;-91
2023/03/04 06:31:24;;;;;;;18.87;5.97;;;4.30;99.90;;;;;;6371431;22;20216;-91
2023/03/04 06:33:51;;;;;;;16.73;7.73;;;4.30;99.90;;;;;;6371728;22;20171;-91
2023/03/04 06:36:18;;;;;;;14.57;5.30;;;4.40;99.90;;;;;;6370136;22;20172;-92
2023/03/04 06:38:45;;;;;;;18.17;6.87;;;4.40;99.90;;;;;;6369673;22;20494;-92
2023/03/04 06:41:13;;;;;;;16.57;6.50;;;4.40;99.90;;;;;;6370165;22;20172;-91
2023/03/04 06:43:40;;;;;;;25.03;10.67;;;4.50;99.90;;;;;;6370764;22;20181;-90
2023/03/04 06:46:09;;;;;;;24.83;10.33;;;4.50;99.90;;;;;;6370394;22;20172;-91
2023/03/04 06:48:36;;;;;;;36.17;14.27;;;4.50;99.90;;;;;;6370182;22;20176;-92
2023/03/04 06:51:06;;;;;;;32.13;11.90;;;4.50;99.90;;;;;;6370411;22;20268;-92
2023/03/04 06:53:33;;;;;;;47.20;14.03;;;4.50;99.90;;;;;;6370148;22;20159;-92
2023/03/04 06:56:00;;;;;;;73.23;22.10;;;4.60;99.90;;;;;;6370786;22;20169;-92
2023/03/04 06:58:26;;;;;;;52.50;14.43;;;4.60;99.90;;;;;;6370591;22;20169;-91
2023/03/04 07:00:53;;;;;;;38.93;11.10;;;4.60;99.90;;;;;;6370724;22;20250;-91
2023/03/04 07:03:22;;;;;;;37.07;12.80;;;4.60;1.00;;;;;;6370484;22;20626;-90
2023/03/04 07:05:49;;;;;;;23.17;8.60;;;4.60;1.00;;;;;;6370834;22;20169;-91
2023/03/04 07:08:15;;;;;;;47.53;15.37;;;4.60;1.00;;;;;;6370707;22;20172;-92
2023/03/04 07:10:42;;;;;;;49.50;16.97;;;4.60;1.00;;;;;;6370700;22;20186;-93
2023/03/04 07:13:09;;;;;;;43.00;15.87;;;4.70;1.00;;;;;;6370955;22;20204;-90
2023/03/04 07:15:37;;;;;;;19.70;7.13;;;4.70;1.00;;;;;;6372286;22;20168;-90
2023/03/04 07:18:03;;;;;;;29.20;11.20;;;4.70;1.00;;;;;;6372801;22;20173;-91
2023/03/04 07:20:32;;;;;;;25.23;9.93;;;4.70;1.00;;;;;;6372419;22;20213;-90
2023/03/04 07:22:58;;;;;;;25.30;9.90;;;4.80;1.00;;;;;;6372549;22;20168;-90
2023/03/04 07:25:25;;;;;;;18.07;6.77;;;4.80;1.00;;;;;;6373430;22;20172;-90
2023/03/04 07:27:52;;;;;;;25.13;9.00;;;4.80;1.00;;;;;;6373417;22;20166;-90
2023/03/04 07:30:19;;;;;;;24.10;8.57;;;4.80;1.00;;;;;;6372893;22;20197;-90
2023/03/04 07:32:46;;;;;;;14.60;5.83;;;4.80;92.30;;;;;;6372762;22;20241;-91
2023/03/04 07:35:13;;;;;;;16.43;5.50;;;4.80;99.90;;;;;;6372692;22;20166;-90
2023/03/04 07:37:41;;;;;;;18.13;5.83;;;4.90;99.90;;;;;;6372098;22;20169;-89
2023/03/04 07:40:09;;;;;;;17.53;8.17;;;4.90;99.90;;;;;;6371937;22;20166;-91
2023/03/04 07:42:36;;;;;;;20.07;7.57;;;5.00;99.90;;;;;;6372361;22;20168;-91
2023/03/04 07:45:04;;;;;;;17.57;7.00;;;5.00;99.90;;;;;;6372523;22;20170;-90
2023/03/04 07:47:31;;;;;;;16.00;6.00;;;5.10;99.90;;;;;;6372573;22;20174;-91
2023/03/04 07:49:57;;;;;;;15.23;6.27;;;5.10;90.30;;;;;;6372212;22;20239;-94
2023/03/04 07:52:24;;;;;;;15.83;6.50;;;5.10;99.90;;;;;;6372490;22;20165;-93
2023/03/04 07:54:52;;;;;;;12.47;5.73;;;5.10;99.90;;;;;;6372809;22;20178;-93
2023/03/04 07:57:19;;;;;;;16.17;6.40;;;5.10;99.90;;;;;;6372691;22;20169;-93
2023/03/04 07:59:46;;;;;;;8.63;4.60;;;5.20;99.90;;;;;;6372822;22;20170;-93
2023/03/04 08:02:14;;;;;;;12.30;5.67;;;5.20;99.90;;;;;;6372693;22;20356;-92
2023/03/04 08:04:41;;;;;;;14.97;4.87;;;5.20;99.90;;;;;;6372963;22;20175;-92
2023/03/04 08:07:08;;;;;;;16.50;9.17;;;5.30;99.90;;;;;;6372397;22;20169;-92
2023/03/04 08:09:34;;;;;;;18.73;9.43;;;5.30;99.90;;;;;;6372290;22;20166;-92
2023/03/04 08:12:03;;;;;;;15.87;8.03;;;5.30;99.90;;;;;;6372198;22;20205;-92
2023/03/04 08:14:30;;;;;;;18.13;9.10;;;5.30;1.00;;;;;;6372615;22;20650;-93
2023/03/04 08:16:56;;;;;;;15.80;6.30;;;5.30;1.00;;;;;;6372598;22;20163;-93
2023/03/04 08:19:23;;;;;;;18.23;8.57;;;5.30;1.00;;;;;;6372723;22;20721;-92
2023/03/04 08:21:50;;;;;;;25.17;11.67;;;5.30;1.00;;;;;;6372121;22;20164;-91
2023/03/04 08:24:17;;;;;;;22.07;10.03;;;5.30;1.00;;;;;;6370618;22;20237;-92
2023/03/04 08:26:47;;;;;;;28.80;13.23;;;5.30;1.00;;;;;;6371132;22;20871;-92
2023/03/04 08:29:19;;;;;;;18.57;9.07;;;5.40;1.00;;;;;;6371502;22;20169;-94
2023/03/04 08:31:46;;;;;;;14.17;6.47;;;5.60;1.00;;;;;;6372419;22;20176;-93
2023/03/04 08:34:13;;;;;;;14.63;7.97;;;5.70;1.00;;;;;;6372085;22;20164;-95
2023/03/04 08:36:41;;;;;;;8.70;4.37;;;5.90;1.00;;;;;;6372167;22;20167;-92
2023/03/04 08:39:08;;;;;;;13.47;7.03;;;6.00;99.90;;;;;;6372425;22;20171;-92
2023/03/04 08:41:35;;;;;;;20.73;9.50;;;6.10;93.40;;;;;;6372827;22;20171;-93
2023/03/04 08:44:03;;;;;;;16.10;7.23;;;6.20;1.00;;;;;;6372844;22;20172;-90
2023/03/04 08:46:31;;;;;;;12.77;4.93;;;6.30;1.00;;;;;;6371850;22;20168;-94
2023/03/04 08:48:58;;;;;;;7.33;3.33;;;6.40;1.00;;;;;;6371635;22;20173;-91
2023/03/04 08:51:25;;;;;;;15.67;6.27;;;6.40;99.90;;;;;;6371874;22;20262;-90
2023/03/04 08:53:52;;;;;;;14.80;5.03;;;6.50;99.90;;;;;;6372192;22;20169;-91
2023/03/04 08:56:18;;;;;;;13.50;5.90;;;6.50;99.90;;;;;;6372381;22;20166;-91
2023/03/04 08:58:45;;;;;;;25.23;10.33;;;6.50;71.30;;;;;;6371426;22;20250;-90
2023/03/04 09:01:13;;;;;;;21.80;9.70;;;6.50;1.00;;;;;;6371720;22;20198;-91
2023/03/04 09:03:42;;;;;;;16.60;6.13;;;6.60;1.00;;;;;;6371579;22;20168;-90
2023/03/04 09:06:13;;;;;;;28.23;10.43;;;6.60;1.00;;;;;;6371702;22;20225;-90
2023/03/04 09:08:40;;;;;;;23.27;10.73;;;6.60;1.00;;;;;;6371977;22;20177;-92
2023/03/04 09:11:07;;;;;;;25.63;10.37;;;6.70;1.00;;;;;;6371397;22;20687;-91
2023/03/04 09:13:34;;;;;;;23.93;10.23;;;6.70;1.00;;;;;;6371940;22;20159;-90
2023/03/04 09:16:01;;;;;;;20.87;10.17;;;6.70;99.90;;;;;;6371768;22;20635;-90
2023/03/04 09:18:28;;;;;;;15.57;7.50;;;6.70;99.90;;;;;;6371316;22;20158;-91
2023/03/04 09:20:56;;;;;;;31.90;13.97;;;6.60;27.80;;;;;;6371866;22;20465;-90
2023/03/04 09:23:23;;;;;;;21.20;10.60;;;6.50;99.90;;;;;;6371351;22;20174;-90
2023/03/04 09:25:50;;;;;;;20.20;10.20;;;6.50;99.90;;;;;;6371046;22;20171;-90
2023/03/04 09:28:19;;;;;;;16.80;8.23;;;6.50;99.90;;;;;;6371394;22;20166;-90
2023/03/04 09:30:45;;;;;;;29.30;13.43;;;6.50;99.90;;;;;;6371001;22;20195;-90
2023/03/04 09:33:13;;;;;;;30.60;14.13;;;6.70;99.90;;;;;;6370976;22;20501;-90
2023/03/04 09:35:40;;;;;;;21.13;9.50;;;6.70;99.90;;;;;;6370569;22;20496;-90
2023/03/04 09:38:09;;;;;;;40.27;19.50;;;6.70;1.00;;;;;;6370611;22;20244;-89
2023/03/04 09:40:40;;;;;;;20.30;12.03;;;6.50;87.00;;;;;;6370748;22;20501;-89
2023/03/04 09:43:15;;;;;;;33.17;16.40;;;6.40;99.90;;;;;;6371157;22;20212;-90
2023/03/04 09:45:47;;;;;;;24.00;13.33;;;6.30;99.90;;;;;;6370801;22;20487;-89
2023/03/04 09:48:18;;;;;;;16.07;9.37;;;6.20;99.90;;;;;;6370871;22;20191;-90
2023/03/04 09:50:56;;;;;;;17.10;10.10;;;6.10;99.90;;;;;;6371372;22;20174;-91
2023/03/04 09:53:31;;;;;;;16.57;8.83;;;6.10;99.90;;;;;;6370547;22;20156;-92
2023/03/04 09:55:58;;;;;;;14.87;6.40;;;6.10;1.00;;;;;;6371714;22;20152;-91
2023/03/04 09:58:37;;;;;;;17.10;8.90;;;6.20;99.90;;;;;;6370672;22;20538;-90
2023/03/04 10:01:11;;;;;;;13.13;5.80;;;6.30;99.90;;;;;;6371320;22;20153;-91
2023/03/04 10:03:43;;;;;;;11.67;5.53;;;6.40;99.90;;;;;;6370655;22;20224;-91
2023/03/04 10:06:15;;;;;;;13.63;5.53;;;6.50;1.00;;;;;;6370894;22;20590;-91
2023/03/04 10:08:48;;;;;;;17.17;5.87;;;6.50;1.00;;;;;;6371276;22;20480;-90
2023/03/04 10:11:18;;;;;;;25.50;11.87;;;6.50;1.00;;;;;;6370584;22;20199;-89
2023/03/04 10:13:53;;;;;;;26.47;13.63;;;6.60;1.00;;;;;;6370787;22;20266;-90
2023/03/04 10:16:24;;;;;;;27.30;12.63;;;6.70;1.00;;;;;;6370709;22;20235;-90
2023/03/04 10:18:54;;;;;;;24.53;11.40;;;6.80;1.00;;;;;;6370886;22;20677;-91
2023/03/04 10:21:26;;;;;;;23.27;10.27;;;6.90;1.00;;;;;;6370952;22;20149;-89
2023/03/04 10:23:54;;;;;;;15.90;9.57;;;7.10;1.00;;;;;;6370355;22;20226;-89
2023/03/04 10:26:22;;;;;;;24.50;8.97;;;7.20;1.00;;;;;;6370819;22;20175;-91
2023/03/04 10:28:51;;;;;;;18.80;9.60;;;7.40;99.90;;;;;;6370684;22;20248;-89
2023/03/04 10:31:22;;;;;;;16.90;9.23;;;7.40;99.90;;;;;;6370715;22;20211;-91
2023/03/04 10:33:49;;;;;;;17.10;9.13;;;7.40;99.90;;;;;;6370923;22;20154;-89
2023/03/04 10:36:37;;;;;;;18.73;8.43;;;7.40;42.50;;;;;;6371018;22;20176;-90
2023/03/04 10:39:10;;;;;;;11.13;4.83;;;7.30;1.00;;;;;;6371441;22;20169;-89
2023/03/04 10:41:41;;;;;;;13.30;4.93;;;7.30;1.00;;;;;;6372591;22;20480;-95
2023/03/04 10:44:15;;;;;;;11.57;5.43;;;7.40;1.00;;;;;;6371800;22;20156;-90
2023/03/04 10:46:43;;;;;;;12.67;4.50;;;7.30;1.00;;;;;;6370831;22;20148;-92
2023/03/04 10:49:11;;;;;;;14.00;3.90;;;7.30;1.00;;;;;;6372361;22;20169;-91
2023/03/04 10:51:42;;;;;;;16.23;5.60;;;7.30;1.00;;;;;;6373764;22;20188;-92
2023/03/04 10:54:22;;;;;;;11.37;3.93;;;7.20;1.00;;;;;;6373081;22;20486;-91
2023/03/04 10:56:56;;;;;;;13.40;3.80;;;7.20;1.00;;;;;;6373158;22;20154;-91
2023/03/04 10:59:43;;;;;;;7.27;3.00;;;7.20;1.00;;;;;;6373567;22;20156;-92
2023/03/04 11:02:24;;;;;;;17.17;8.57;;;7.20;1.00;;;;;;6373016;22;20150;-91
2023/03/04 11:04:53;;;;;;;15.40;7.10;;;7.30;1.00;;;;;;6373285;22;20166;-91
2023/03/04 11:07:21;;;;;;;19.27;9.40;;;7.30;1.00;;;;;;6340897;22;20166;-91
2023/03/04 11:09:50;;;;;;;8.73;3.50;;;7.30;1.00;;;;;;6341539;22;20173;-91
2023/03/04 11:12:19;;;;;;;26.93;8.77;;;7.20;1.00;;;;;;6341553;22;20282;-92
2023/03/04 11:14:48;;;;;;;16.83;6.57;;;7.30;1.00;;;;;;6341021;22;20167;-91
2023/03/04 11:17:21;;;;;;;18.47;6.10;;;7.30;1.00;;;;;;6341680;22;20557;-89
2023/03/04 11:19:52;;;;;;;19.93;7.10;;;7.30;1.00;;;;;;6341505;22;20202;-91
2023/03/04 11:22:21;;;;;;;29.73;9.53;;;7.30;1.00;;;;;;6341121;22;20154;-91
2023/03/04 11:24:57;;;;;;;20.87;7.57;;;7.20;1.00;;;;;;6341164;22;20170;-90
2023/03/04 11:27:30;;;;;;;16.43;5.70;;;7.00;1.00;;;;;;6341614;22;20150;-92
2023/03/04 11:30:04;;;;;;;21.53;5.50;;;6.90;1.00;;;;;;6341517;22;20153;-91
2023/03/04 11:32:36;;;;;;;29.00;9.03;;;6.80;1.00;;;;;;6341303;22;20185;-90
2023/03/04 11:35:11;;;;;;;39.43;12.60;;;6.70;1.00;;;;;;6341296;22;20154;-91
2023/03/04 11:37:43;;;;;;;22.70;7.87;;;6.60;1.00;;;;;;6339749;22;20158;-89
2023/03/04 11:40:16;;;;;;;20.53;7.33;;;6.50;1.00;;;;;;6340583;22;20160;-91
2023/03/04 11:42:47;;;;;;;19.37;6.77;;;6.50;1.00;;;;;;6340790;22;20150;-91
2023/03/04 11:45:16;;;;;;;25.17;7.60;;;6.50;1.00;;;;;;6340975;22;20153;-91
2023/03/04 11:47:55;;;;;;;24.47;9.23;;;6.50;1.00;;;;;;6340665;22;20165;-90
2023/03/04 11:50:33;;;;;;;18.83;7.33;;;6.60;31.50;;;;;;6341250;22;20152;-91
2023/03/04 11:53:39;;;;;;;16.60;5.60;;;6.70;24.20;;;;;;6340844;22;20173;-92
2023/03/04 11:56:24;;;;;;;23.57;8.93;;;6.90;1.00;;;;;;6341105;22;20643;-91
2023/03/04 11:59:15;;;;;;;24.33;8.30;;;7.10;1.00;;;;;;6340627;22;20149;-92
2023/03/04 12:01:51;;;;;;;16.03;6.63;;;7.60;20.70;;;;;;6340382;22;20151;-92
2023/03/04 12:04:27;;;;;;;23.87;8.23;;;8.00;1.00;;;;;;6340549;22;20304;-91
2023/03/04 12:07:12;;;;;;;19.93;7.80;;;8.10;1.00;;;;;;6340206;22;20154;-90
2023/03/04 12:09:51;;;;;;;13.70;5.10;;;7.90;99.90;;;;;;6339976;22;20471;-89
2023/03/04 12:12:39;;;;;;;19.67;6.27;;;7.70;1.00;;;;;;6339938;22;20200;-92
2023/03/04 12:15:17;;;;;;;5.77;2.03;;;7.40;1.00;;;;;;6340384;22;20164;-88
2023/03/04 12:17:56;;;;;;;3.83;1.50;;;7.20;1.00;;;;;;6339796;22;20153;-87
2023/03/04 12:20:58;;;;;;;8.80;4.53;;;6.90;1.00;;;;;;6340086;22;20152;-88
2023/03/04 12:23:41;;;;;;;9.83;5.37;;;6.60;1.00;;;;;;6323256;22;20172;-88
2023/03/04 12:26:20;;;;;;;8.07;3.10;;;6.30;1.00;;;;;;6339193;22;20143;-88
2023/03/04 12:28:59;;;;;;;8.00;3.00;;;6.30;1.00;;;;;;6339321;22;20156;-88
2023/03/04 12:31:34;;;;;;;9.27;3.00;;;6.30;1.00;;;;;;6340540;22;20178;-90
2023/03/04 12:34:27;;;;;;;11.00;4.23;;;6.40;1.00;;;;;;6340724;22;20231;-91
2023/03/04 12:37:00;;;;;;;7.80;3.60;;;6.40;1.00;;;;;;6323908;22;20173;-90
2023/03/04 12:39:32;;;;;;;6.70;3.20;;;6.50;1.00;;;;;;6340606;22;20241;-90
2023/03/04 12:42:15;;;;;;;9.20;3.97;;;6.60;1.00;;;;;;6340295;22;20154;-91
2023/03/04 12:44:48;;;;;;;9.50;3.90;;;6.60;1.00;;;;;;6340438;22;20191;-92
2023/03/04 12:47:28;;;;;;;7.33;2.80;;;6.60;1.00;;;;;;6340726;22;20153;-92
2023/03/04 12:50:19;;;;;;;7.17;2.87;;;6.70;1.00;;;;;;6340939;22;20152;-91
2023/03/04 12:52:55;;;;;;;10.50;3.53;;;6.50;1.00;;;;;;6340592;22;20185;-90
2023/03/04 12:55:31;;;;;;;5.10;2.63;;;6.50;1.00;;;;;;6340659;22;20153;-91
2023/03/04 12:57:58;;;;;;;9.40;2.93;;;6.40;1.00;;;;;;6340416;22;20163;-91
2023/03/04 13:00:37;;;;;;;8.23;2.80;;;6.40;1.00;;;;;;6340521;22;20172;-92
2023/03/04 13:03:12;;;;;;;8.53;3.00;;;6.30;1.00;;;;;;6340256;22;20476;-91
2023/03/04 13:05:55;;;;;;;7.60;2.50;;;6.20;1.00;;;;;;6340721;22;20475;-90
2023/03/04 13:08:31;;;;;;;7.07;3.03;;;6.20;1.00;;;;;;6340467;22;20159;-91
2023/03/04 13:11:02;;;;;;;7.43;2.50;;;6.20;1.00;;;;;;6340163;22;20152;-91
2023/03/04 13:13:39;;;;;;;8.03;3.00;;;6.30;1.00;;;;;;6340187;22;20199;-90
2023/03/04 13:16:31;;;;;;;6.00;2.30;;;6.30;1.00;;;;;;6340129;22;20616;-92
2023/03/04 13:18:58;;;;;;;7.03;2.77;;;6.30;1.00;;;;;;6340744;22;20230;-94
2023/03/04 13:21:26;;;;;;;7.63;2.50;;;6.40;1.00;;;;;;6340696;22;20190;-92
2023/03/04 13:23:54;;;;;;;4.43;2.67;;;6.60;1.00;;;;;;6340648;22;20171;-93
2023/03/04 13:26:24;;;;;;;6.83;2.07;;;6.70;1.00;;;;;;6340950;22;20556;-92
2023/03/04 13:29:10;;;;;;;6.23;2.00;;;6.90;1.00;;;;;;6340679;22;20166;-93
2023/03/04 13:31:59;;;;;;;5.97;2.03;;;6.90;1.00;;;;;;6340796;22;20209;-94
2023/03/04 13:34:49;;;;;;;9.00;1.97;;;6.80;1.00;;;;;;6341139;22;20159;-92
2023/03/04 13:37:34;;;;;;;6.13;2.20;;;6.60;99.90;;;;;;6340938;22;20156;-90
2023/03/04 13:40:33;;;;;;;7.13;2.47;;;6.40;99.90;;;;;;6341686;22;20228;-91
2023/03/04 13:43:28;;;;;;;3.53;1.50;;;6.30;99.90;;;;;;6213415;23;20231;-92
2023/03/04 13:45:56;;;;;;;5.87;2.70;;;6.30;99.90;;;;;;6215679;23;20175;-92
2023/03/04 13:48:31;;;;;;;4.27;2.00;;;6.30;99.90;;;;;;6214294;23;20176;-91
2023/03/04 13:50:59;;;;;;;3.60;2.03;;;6.30;99.90;;;;;;6214522;23;20183;-91
2023/03/04 13:53:45;;;;;;;2.83;1.23;;;6.30;99.90;;;;;;6214537;23;20186;-91
2023/03/04 13:56:23;;;;;;;3.20;1.80;;;6.30;99.90;;;;;;6215021;23;20159;-91
2023/03/04 13:58:53;;;;;;;4.00;1.73;;;6.30;99.90;;;;;;6214668;23;20175;-91
2023/03/04 14:01:27;;;;;;;5.07;1.70;;;6.30;99.90;;;;;;6214331;23;20175;-91
2023/03/04 14:03:55;;;;;;;3.53;1.70;;;6.40;99.90;;;;;;6214895;23;20171;-91
2023/03/04 14:06:24;;;;;;;3.30;1.40;;;6.30;99.90;;;;;;6214627;23;20177;-91
2023/03/04 14:08:52;;;;;;;3.47;1.40;;;6.20;99.90;;;;;;6214550;23;20626;-91
2023/03/04 14:11:27;;;;;;;2.90;1.20;;;6.20;99.90;;;;;;6214597;23;20755;-91
2023/03/04 14:13:56;;;;;;;3.80;1.50;;;6.20;99.90;;;;;;6214669;23;20179;-91
2023/03/04 14:16:27;;;;;;;3.73;2.23;;;6.10;99.90;;;;;;6238744;22;20545;-91
2023/03/04 14:18:59;;;;;;;3.23;1.57;;;6.10;99.90;;;;;;6340169;22;20632;-92
2023/03/04 14:21:26;;;;;;;3.60;1.30;;;6.10;99.90;;;;;;6339731;22;20168;-92
2023/03/04 14:24:07;;;;;;;6.00;2.00;;;6.10;99.90;;;;;;6339572;22;20620;-91
2023/03/04 14:26:35;;;;;;;3.13;1.50;;;6.10;99.90;;;;;;6342119;22;20479;-91
2023/03/04 14:29:02;;;;;;;3.83;1.23;;;6.10;99.90;;;;;;6341614;22;20171;-91
2023/03/04 14:31:31;;;;;;;4.17;1.23;;;6.10;99.90;;;;;;6341651;22;20168;-91
2023/03/04 14:34:01;;;;;;;2.50;1.33;;;6.00;99.90;;;;;;6341744;22;20189;-92
2023/03/04 14:36:31;;;;;;;3.57;1.30;;;5.90;99.90;;;;;;6341097;22;20636;-91
2023/03/04 14:39:00;;;;;;;4.93;1.90;;;5.90;99.90;;;;;;6342155;22;20176;-92
2023/03/04 14:41:29;;;;;;;2.20;1.27;;;5.90;99.90;;;;;;6342035;22;20252;-93
2023/03/04 14:44:04;;;;;;;3.33;1.60;;;5.80;99.90;;;;;;6342448;22;20170;-92
2023/03/04 14:46:34;;;;;;;6.20;1.67;;;5.90;99.90;;;;;;6341801;22;20237;-92
2023/03/04 14:49:03;;;;;;;5.17;2.57;;;5.90;99.90;;;;;;6341621;22;20182;-91
2023/03/04 14:51:46;;;;;;;1.97;1.57;;;5.80;99.90;;;;;;6341473;22;20177;-91
2023/03/04 14:54:34;;;;;;;4.00;0.83;;;5.70;99.90;;;;;;6340796;22;20152;-91
2023/03/04 14:57:20;;;;;;;1.67;0.97;;;5.60;99.90;;;;;;6341517;22;20172;-91
2023/03/04 14:59:47;;;;;;;2.40;0.70;;;5.50;99.00;;;;;;6342188;22;20179;-92
2023/03/04 15:02:30;;;;;;;3.57;1.40;;;5.30;97.40;;;;;;6341418;22;20166;-92
2023/03/04 15:05:01;;;;;;;2.17;1.20;;;5.10;99.80;;;;;;6340686;22;20199;-92
2023/03/04 15:07:33;;;;;;;2.57;0.77;;;5.00;96.90;;;;;;6340048;22;20233;-91
2023/03/04 15:10:02;;;;;;;2.93;0.90;;;4.80;94.40;;;;;;6341706;22;20155;-91
2023/03/04 15:12:31;;;;;;;1.13;0.87;;;4.70;94.10;;;;;;6341005;22;20205;-91
2023/03/04 15:14:59;;;;;;;1.83;1.10;;;4.60;95.30;;;;;;6342258;22;20166;-90
2023/03/04 15:17:36;;;;;;;3.77;1.57;;;4.50;96.20;;;;;;6341053;22;20252;-92
2023/03/04 15:20:24;;;;;;;4.47;1.17;;;4.40;95.80;;;;;;6341194;22;20155;-93
2023/03/04 15:22:59;;;;;;;3.37;1.57;;;4.30;98.80;;;;;;6341316;22;20197;-92
2023/03/04 15:25:26;;;;;;;3.73;1.63;;;4.20;99.30;;;;;;6341263;22;20178;-91
2023/03/04 15:27:53;;;;;;;3.70;1.70;;;4.10;99.90;;;;;;6339963;22;20245;-91
2023/03/04 15:30:23;;;;;;;2.77;1.30;;;4.10;99.90;;;;;;6339772;22;20628;-92
2023/03/04 15:32:50;;;;;;;5.13;1.50;;;4.10;99.90;;;;;;6341488;22;20190;-91
2023/03/04 15:35:19;;;;;;;2.13;0.83;;;4.00;99.90;;;;;;6340063;22;20172;-91
2023/03/04 15:37:48;;;;;;;3.27;1.80;;;4.00;99.90;;;;;;6341074;22;20500;-96
2023/03/04 15:40:20;;;;;;;2.47;1.40;;;4.00;99.90;;;;;;6341110;22;20169;-92
2023/03/04 15:42:47;;;;;;;3.00;1.40;;;4.00;99.90;;;;;;6340876;22;20146;-93
2023/03/04 15:45:22;;;;;;;1.97;0.90;;;4.00;98.60;;;;;;6340976;22;20249;-93
2023/03/04 15:47:48;;;;;;;2.00;1.10;;;3.90;99.10;;;;;;6341860;22;20203;-93
2023/03/04 15:50:16;;;;;;;0.93;0.80;;;3.80;94.90;;;;;;6340606;22;20202;-92
2023/03/04 15:52:44;;;;;;;7.93;3.97;;;3.80;93.00;;;;;;6341040;22;20185;-92
2023/03/04 15:55:15;;;;;;;4.00;1.70;;;3.70;93.70;;;;;;6341277;22;20249;-93
2023/03/04 15:57:42;;;;;;;3.60;1.67;;;3.60;90.80;;;;;;6341327;22;20161;-93
2023/03/04 16:00:11;;;;;;;2.37;0.93;;;3.50;83.20;;;;;;6342795;22;20170;-90
2023/03/04 16:02:38;;;;;;;2.30;1.13;;;3.50;73.10;;;;;;6340308;22;20176;-90
2023/03/04 16:05:06;;;;;;;3.20;1.17;;;3.50;67.20;;;;;;6340590;22;20176;-91
2023/03/04 16:07:34;;;;;;;2.83;1.13;;;3.40;67.90;;;;;;6341631;22;20170;-93
2023/03/04 16:10:06;;;;;;;2.70;0.80;;;3.40;67.80;;;;;;6341624;22;20466;-92
2023/03/04 16:12:36;;;;;;;2.90;1.10;;;3.30;65.10;;;;;;6341224;22;20201;-92
2023/03/04 16:15:06;;;;;;;2.63;1.17;;;3.20;61.40;;;;;;6341179;22;20166;-92
2023/03/04 16:17:33;;;;;;;2.17;1.50;;;3.10;65.70;;;;;;6340606;22;20241;-92
2023/03/04 16:20:00;;;;;;;7.27;3.70;;;3.00;64.40;;;;;;6340029;22;20220;-91
2023/03/04 16:22:29;;;;;;;7.73;3.47;;;2.90;66.70;;;;;;6340506;22;20590;-92
2023/03/04 16:24:57;;;;;;;7.83;3.10;;;2.70;73.90;;;;;;6339594;22;20240;-90
2023/03/04 16:27:25;;;;;;;4.77;2.60;;;2.60;75.40;;;;;;6340091;22;20612;-90
2023/03/04 16:29:52;;;;;;;6.47;2.77;;;2.40;76.00;;;;;;6338976;22;20260;-89
2023/03/04 16:32:18;;;;;;;9.13;3.67;;;2.30;80.60;;;;;;6338939;22;20169;-90
2023/03/04 16:34:46;;;;;;;7.17;2.80;;;2.20;82.90;;;;;;6339157;22;20175;-88
2023/03/04 16:37:17;;;;;;;6.53;2.87;;;2.20;86.80;;;;;;6338202;22;20178;-91
2023/03/04 16:39:45;;;;;;;2.90;2.10;;;2.10;91.00;;;;;;6338454;22;20151;-90
2023/03/04 16:42:14;;;;;;;3.63;2.30;;;2.00;99.90;;;;;;6337981;22;20171;-89
2023/03/04 16:44:43;;;;;;;5.60;3.10;;;2.00;93.90;;;;;;6338288;22;20167;-89
2023/03/04 16:47:09;;;;;;;5.20;2.73;;;1.90;94.00;;;;;;6339033;22;20177;-90
2023/03/04 16:49:36;;;;;;;5.87;4.00;;;1.80;95.00;;;;;;6338337;22;20168;-90
2023/03/04 16:52:04;;;;;;;9.37;3.73;;;1.70;98.50;;;;;;6339710;22;20187;-90
2023/03/04 16:54:34;;;;;;;5.63;3.90;;;1.60;99.90;;;;;;6339345;22;20191;-90
2023/03/04 16:57:01;;;;;;;4.47;2.50;;;1.50;99.90;;;;;;6340323;22;20174;-90
2023/03/04 16:59:28;;;;;;;5.20;2.90;;;1.40;99.90;;;;;;6340450;22;20172;-90
2023/03/04 17:01:57;;;;;;;4.20;2.20;;;1.40;99.90;;;;;;6340454;22;20246;-90
2023/03/04 17:04:24;;;;;;;4.53;2.50;;;1.30;99.90;;;;;;6340126;22;20162;-90
2023/03/04 17:06:51;;;;;;;3.97;2.50;;;1.30;99.90;;;;;;6340045;22;20167;-91
2023/03/04 17:09:18;;;;;;;10.63;7.87;;;1.20;99.90;;;;;;6340009;22;20161;-90
2023/03/04 17:11:45;;;;;;;6.77;3.03;;;1.20;99.90;;;;;;6339791;22;20197;-90
2023/03/04 17:14:11;;;;;;;10.33;4.63;;;1.30;99.90;;;;;;6340587;22;20516;-90
2023/03/04 17:16:38;;;;;;;15.37;5.27;;;1.20;99.90;;;;;;6340044;22;20620;-90
2023/03/04 17:19:06;;;;;;;9.60;4.27;;;1.10;99.90;;;;;;6338209;22;20500;-90
2023/03/04 17:21:33;;;;;;;5.83;3.40;;;1.10;99.90;;;;;;6338223;22;20161;-88
2023/03/04 17:24:01;;;;;;;8.97;4.17;;;1.00;99.90;;;;;;6337641;22;20654;-90
2023/03/04 17:26:28;;;;;;;5.33;2.70;;;1.00;99.90;;;;;;6338450;22;20169;-89
2023/03/04 17:28:55;;;;;;;7.80;3.77;;;0.90;99.90;;;;;;6339694;22;20168;-89
2023/03/04 17:31:22;;;;;;;8.47;3.43;;;0.90;99.90;;;;;;6339350;22;20172;-91
2023/03/04 17:33:49;;;;;;;8.40;3.70;;;0.90;99.90;;;;;;6339003;22;20182;-92
2023/03/04 17:36:19;;;;;;;6.87;3.40;;;0.90;99.90;;;;;;6339688;22;20166;-89
2023/03/04 17:38:46;;;;;;;6.93;3.97;;;0.80;99.90;;;;;;6339921;22;20172;-89
2023/03/04 17:41:17;;;;;;;5.23;2.60;;;0.80;99.90;;;;;;6339443;22;20496;-89
2023/03/04 17:43:44;;;;;;;6.47;4.00;;;0.70;99.90;;;;;;6340071;22;20169;-90
2023/03/04 17:46:13;;;;;;;9.70;5.50;;;0.70;99.90;;;;;;6339270;22;20170;-90
2023/03/04 17:48:40;;;;;;;11.43;5.80;;;0.70;99.90;;;;;;6340126;22;20170;-91
2023/03/04 17:51:07;;;;;;;7.97;3.70;;;0.70;99.90;;;;;;6339887;22;20162;-91
2023/03/04 17:53:35;;;;;;;14.87;8.17;;;0.60;99.90;;;;;;6340137;22;20192;-91
2023/03/04 17:56:05;;;;;;;12.37;5.87;;;0.50;99.90;;;;;;6339826;22;20166;-90
2023/03/04 17:58:34;;;;;;;21.83;9.77;;;0.50;99.90;;;;;;6339064;22;20166;-89
2023/03/04 18:01:04;;;;;;;12.27;6.00;;;0.40;99.90;;;;;;6339412;22;20172;-90
2023/03/04 18:03:31;;;;;;;11.53;5.97;;;0.40;99.90;;;;;;6339042;22;20611;-90
2023/03/04 18:05:58;;;;;;;10.37;4.43;;;0.40;99.90;;;;;;6339372;22;20166;-90
2023/03/04 18:08:24;;;;;;;9.87;3.97;;;0.40;99.90;;;;;;6339237;22;20165;-90
2023/03/04 18:10:53;;;;;;;6.90;3.20;;;0.40;99.90;;;;;;6339324;22;20173;-89
2023/03/04 18:13:20;;;;;;;6.90;3.10;;;0.50;99.90;;;;;;6339936;22;20196;-92
2023/03/04 18:15:47;;;;;;;4.43;2.73;;;0.60;99.90;;;;;;6340046;22;20170;-91
2023/03/04 18:18:14;;;;;;;4.40;2.47;;;0.60;99.90;;;;;;6339892;22;20176;-92
2023/03/04 18:20:40;;;;;;;5.70;2.60;;;0.60;99.90;;;;;;6339931;22;20170;-91
2023/03/04 18:23:07;;;;;;;4.53;2.50;;;0.70;99.90;;;;;;6339658;22;20170;-90
2023/03/04 18:25:34;;;;;;;5.80;2.13;;;0.70;99.90;;;;;;6339834;22;20228;-91
2023/03/04 18:28:03;;;;;;;3.27;1.87;;;0.70;99.90;;;;;;6340192;22;20173;-91
2023/03/04 18:30:30;;;;;;;3.17;1.97;;;0.70;99.90;;;;;;6339337;22;20168;-90
2023/03/04 18:32:58;;;;;;;5.10;2.53;;;0.70;99.90;;;;;;6339862;22;20193;-91
2023/03/04 18:35:26;;;;;;;4.80;2.47;;;0.70;99.90;;;;;;6339973;22;20477;-91
2023/03/04 18:37:52;;;;;;;5.53;2.00;;;0.70;99.90;;;;;;6339581;22;20172;-91
2023/03/04 18:40:19;;;;;;;5.17;2.13;;;0.60;99.90;;;;;;6339753;22;20172;-90
2023/03/04 18:42:47;;;;;;;3.87;2.10;;;0.60;99.90;;;;;;6339395;22;20166;-90
2023/03/04 18:45:16;;;;;;;6.43;2.50;;;0.50;99.90;;;;;;6339626;22;20167;-91
2023/03/04 18:47:46;;;;;;;6.90;3.60;;;0.50;99.90;;;;;;6340374;22;20216;-92
2023/03/04 18:50:14;;;;;;;4.83;2.60;;;0.50;99.90;;;;;;6340096;22;20158;-91
2023/03/04 18:52:41;;;;;;;5.63;2.50;;;0.50;99.90;;;;;;6339727;22;20170;-92
2023/03/04 18:55:09;;;;;;;4.33;2.77;;;0.40;99.90;;;;;;6339822;22;20192;-91
2023/03/04 18:57:38;;;;;;;6.80;3.43;;;0.40;99.90;;;;;;6339645;22;20245;-90
2023/03/04 19:00:06;;;;;;;7.40;2.73;;;0.30;99.90;;;;;;6339068;22;20173;-90
2023/03/04 19:02:40;;;;;;;5.17;2.70;;;0.30;99.90;;;;;;6339316;22;20169;-91
2023/03/04 19:05:10;;;;;;;8.83;4.23;;;0.30;99.90;;;;;;6339666;22;20578;-91
2023/03/04 19:07:37;;;;;;;12.23;5.70;;;0.20;99.90;;;;;;6339584;22;20161;-91
2023/03/04 19:10:05;;;;;;;19.17;7.77;;;0.20;99.90;;;;;;6339950;22;20638;-91
2023/03/04 19:12:32;;;;;;;16.93;6.57;;;0.20;99.90;;;;;;6341509;22;20517;-91
2023/03/04 19:14:59;;;;;;;11.57;5.90;;;0.20;99.90;;;;;;6341966;22;20196;-91
2023/03/04 19:17:30;;;;;;;10.67;5.47;;;0.20;99.90;;;;;;6341809;22;20166;-90
2023/03/04 19:19:58;;;;;;;10.73;5.27;;;0.10;99.90;;;;;;6341799;22;20154;-91
2023/03/04 19:22:25;;;;;;;7.13;4.03;;;0.10;99.90;;;;;;6341520;22;20170;-92
2023/03/04 19:24:52;;;;;;;7.77;3.77;;;0.00;99.90;;;;;;6341560;22;20166;-92